KORD/ORD METAR and TAF weather

Enter ICAO airport designator
Station Type Date Time Source
KORD METAR 2019/02/21 10:51 UTC NOAA

KORD 211051Z 24009KT 9SM SCT250 M03/M07 A3003 RMK AO2 SLP176 T10331072


Station Type Date Time Source
KORD Decoded METAR 2019/02/21 10:51 UTC NOAA

CHICAGO O'HARE INTERNATIONAL, IL, United States (KORD) 41-59N 087-55W 200M
Feb 21, 2019 - 05:51 AM EST / 2019.02.21 1051 UTC
Wind: from the WSW (240 degrees) at 10 MPH (9 KT):0
Visibility: 9 mile(s):0
Sky conditions: partly cloudy
Temperature: 26.1 F (-3.3 C)
Windchill: 15 F (-9 C):1
Dew Point: 19.0 F (-7.2 C)
Relative Humidity: 74%
Pressure (altimeter): 30.03 in. Hg (1016 hPa)
ob: KORD 211051Z 24009KT 9SM SCT250 M03/M07 A3003 RMK AO2 SLP176 T10331072
cycle: 11

Station Type Date Time Source
KORD TAF 2019/02/21 12:36 UTC NOAA

TAF KORD 211133Z 2112/2218 25010KT P6SM SCT250
FM211500 26012G18KT P6SM BKN250
FM220000 30006KT P6SM SCT250
FM220900 03004KT P6SM SCT100
FM221700 10007KT P6SM SCT045


Example: see airport list